createdAt,value
2023-02-09T00:00:01.845Z,14.95
2023-02-09T00:01:04.064Z,14.44
2023-02-09T00:02:07.073Z,15.10
2023-02-09T00:03:10.011Z,14.96
2023-02-09T00:04:13.326Z,13.75
2023-02-09T00:05:16.279Z,15.35
2023-02-09T00:06:19.310Z,15.05
2023-02-09T00:07:22.418Z,13.06
2023-02-09T00:08:25.409Z,15.34
2023-02-09T00:09:28.700Z,16.30
2023-02-09T00:10:31.771Z,16.85
2023-02-09T00:11:34.746Z,12.67
2023-02-09T00:12:37.741Z,15.31
2023-02-09T00:13:40.596Z,12.18
2023-02-09T00:14:43.929Z,17.29
2023-02-09T00:15:46.758Z,15.39
2023-02-09T00:16:49.812Z,18.10
2023-02-09T00:17:52.657Z,19.56
2023-02-09T00:18:55.488Z,15.72
2023-02-09T00:19:58.577Z,16.17
2023-02-09T00:21:01.661Z,19.08
2023-02-09T00:22:04.698Z,17.47
2023-02-09T00:23:07.690Z,16.88
2023-02-09T00:24:10.855Z,17.35
2023-02-09T00:25:14.204Z,15.62
2023-02-09T00:26:17.047Z,18.88
2023-02-09T00:27:20.181Z,19.67
2023-02-09T00:28:23.262Z,14.12
2023-02-09T00:29:26.282Z,14.08
2023-02-09T00:30:29.525Z,13.72
2023-02-09T00:31:32.619Z,17.36
2023-02-09T00:32:35.127Z,14.61
2023-02-09T00:33:37.878Z,13.38
2023-02-09T00:34:40.981Z,15.20
2023-02-09T00:35:43.940Z,14.43
2023-02-09T00:36:46.939Z,17.38
2023-02-09T00:37:50.004Z,13.07
2023-02-09T00:38:52.977Z,18.02
2023-02-09T00:39:56.084Z,20.48
2023-02-09T00:40:59.137Z,15.76
2023-02-09T00:42:02.039Z,17.62
2023-02-09T00:43:05.517Z,13.63
2023-02-09T00:44:08.576Z,16.99
2023-02-09T00:45:11.796Z,17.92
2023-02-09T00:46:15.293Z,14.16
2023-02-09T00:47:18.737Z,15.00
2023-02-09T00:48:21.726Z,17.05
2023-02-09T00:49:24.894Z,16.64
2023-02-09T00:50:27.985Z,18.20
2023-02-09T00:51:31.607Z,16.23
2023-02-09T00:52:35.062Z,19.15
2023-02-09T00:53:38.128Z,17.92
2023-02-09T00:54:40.945Z,15.41
2023-02-09T00:55:43.979Z,18.18
2023-02-09T00:56:47.588Z,15.14
2023-02-09T00:57:50.549Z,20.67
2023-02-09T00:58:53.442Z,20.98
2023-02-09T00:59:56.425Z,17.95
2023-02-09T01:00:59.632Z,16.72
2023-02-09T01:02:02.575Z,16.69
2023-02-09T01:03:05.445Z,18.16
2023-02-09T01:04:08.539Z,17.61
2023-02-09T01:05:11.405Z,17.45
2023-02-09T01:06:14.479Z,22.38
2023-02-09T01:07:17.660Z,21.68
2023-02-09T01:08:20.425Z,22.17
2023-02-09T01:09:23.603Z,26.36
2023-02-09T01:10:26.621Z,20.78
2023-02-09T01:11:29.568Z,20.64
2023-02-09T01:12:32.837Z,19.26
2023-02-09T01:13:35.897Z,20.59
2023-02-09T01:14:38.793Z,19.82
2023-02-09T01:15:41.678Z,22.22
2023-02-09T01:16:44.609Z,23.43
2023-02-09T01:17:47.731Z,21.58
2023-02-09T01:18:50.599Z,21.28
2023-02-09T01:19:53.592Z,22.70
2023-02-09T01:20:56.551Z,24.22
2023-02-09T01:21:59.629Z,24.24
2023-02-09T01:23:02.923Z,24.05
2023-02-09T01:24:05.998Z,21.72
2023-02-09T01:25:09.075Z,25.72
2023-02-09T01:26:12.169Z,22.18
2023-02-09T01:27:15.337Z,21.98
2023-02-09T01:28:18.336Z,23.10
2023-02-09T01:29:21.192Z,26.68
2023-02-09T01:30:24.064Z,24.75
2023-02-09T01:31:27.217Z,24.47
2023-02-09T01:32:30.365Z,19.65
2023-02-09T01:33:33.320Z,21.58
2023-02-09T01:34:36.174Z,22.52
2023-02-09T01:35:39.266Z,25.28
2023-02-09T01:36:42.331Z,22.51
2023-02-09T01:37:45.482Z,23.24
2023-02-09T01:38:49.116Z,18.18
2023-02-09T01:39:52.395Z,19.12
2023-02-09T01:40:55.369Z,18.86
2023-02-09T01:41:58.245Z,15.02
2023-02-09T01:43:01.227Z,15.72
2023-02-09T01:44:04.500Z,15.22
2023-02-09T01:45:07.279Z,11.16
2023-02-09T01:46:10.230Z,13.77
2023-02-09T01:47:13.150Z,17.00
2023-02-09T01:48:16.107Z,17.16
2023-02-09T01:49:19.899Z,14.94
2023-02-09T01:50:22.777Z,16.21
2023-02-09T01:51:25.658Z,14.46
2023-02-09T01:52:28.738Z,16.15
2023-02-09T01:53:31.726Z,13.83
2023-02-09T01:54:34.894Z,14.08
2023-02-09T01:55:37.877Z,12.81
2023-02-09T01:56:41.878Z,12.87
2023-02-09T01:57:45.164Z,15.60
2023-02-09T01:58:48.028Z,15.71
2023-02-09T01:59:51.215Z,14.23
2023-02-09T02:00:54.196Z,11.58
2023-02-09T02:01:57.057Z,11.83
2023-02-09T02:03:00.049Z,12.23
2023-02-09T02:04:02.821Z,12.38
2023-02-09T02:05:06.197Z,10.71
2023-02-09T02:06:09.279Z,8.89
2023-02-09T02:07:12.400Z,10.58
2023-02-09T02:08:15.340Z,10.44
2023-02-09T02:09:18.426Z,11.48
2023-02-09T02:10:21.593Z,9.98
2023-02-09T02:11:24.782Z,12.34
2023-02-09T02:12:27.752Z,13.32
2023-02-09T02:13:30.549Z,10.62
2023-02-09T02:14:33.396Z,10.13
2023-02-09T02:15:36.740Z,10.82
2023-02-09T02:16:41.909Z,9.24
2023-02-09T02:17:44.889Z,11.32
2023-02-09T02:18:47.863Z,10.21
2023-02-09T02:19:50.972Z,11.36
2023-02-09T02:20:53.630Z,12.58
2023-02-09T02:21:56.403Z,12.70
2023-02-09T02:22:59.098Z,9.95
2023-02-09T02:24:01.765Z,11.02
2023-02-09T02:25:04.491Z,13.89
2023-02-09T02:26:07.315Z,14.07
2023-02-09T02:27:10.147Z,12.65
2023-02-09T02:28:12.874Z,13.22
2023-02-09T02:29:15.599Z,14.31
2023-02-09T02:30:18.284Z,14.11
2023-02-09T02:31:21.151Z,13.87
2023-02-09T02:32:24.013Z,11.38
2023-02-09T02:33:26.591Z,13.35
2023-02-09T02:34:29.143Z,14.00
2023-02-09T02:35:32.131Z,12.50
2023-02-09T02:36:34.901Z,14.13
2023-02-09T02:37:37.562Z,12.12
2023-02-09T02:38:40.313Z,12.37
2023-02-09T02:39:43.007Z,14.36
2023-02-09T02:40:46.321Z,12.82
2023-02-09T02:41:49.564Z,13.62
2023-02-09T02:42:52.439Z,12.49
2023-02-09T02:43:55.211Z,15.73
2023-02-09T02:44:58.195Z,14.19
2023-02-09T02:46:01.237Z,13.87
2023-02-09T02:47:04.593Z,15.44
2023-02-09T02:48:07.439Z,17.63
2023-02-09T02:49:10.528Z,15.18
2023-02-09T02:50:13.320Z,20.70
2023-02-09T02:51:16.268Z,21.60
2023-02-09T02:52:19.350Z,22.08
2023-02-09T02:53:22.328Z,22.26
2023-02-09T02:54:25.032Z,25.38
2023-02-09T02:55:27.767Z,23.15
2023-02-09T02:56:30.845Z,23.37
2023-02-09T02:57:33.736Z,21.13
2023-02-09T02:58:36.511Z,23.08
2023-02-09T02:59:39.286Z,24.74
2023-02-09T03:00:42.159Z,24.92
2023-02-09T03:01:44.989Z,24.75
2023-02-09T03:02:48.347Z,24.18
2023-02-09T03:03:51.285Z,24.04
2023-02-09T03:04:54.239Z,24.13
2023-02-09T03:05:57.124Z,26.18
2023-02-09T03:07:00.110Z,30.67
2023-02-09T03:08:03.220Z,30.75
2023-02-09T03:09:06.055Z,31.39
2023-02-09T03:10:08.943Z,28.42
2023-02-09T03:11:11.810Z,28.32
2023-02-09T03:12:14.692Z,28.53
2023-02-09T03:13:17.879Z,29.63
2023-02-09T03:14:20.852Z,23.65
2023-02-09T03:15:23.722Z,25.97
2023-02-09T03:16:26.631Z,29.38
2023-02-09T03:17:29.572Z,26.11
2023-02-09T03:18:32.742Z,24.34
2023-02-09T03:19:35.755Z,22.26
2023-02-09T03:20:38.496Z,23.56
2023-02-09T03:21:41.481Z,23.35
2023-02-09T03:22:44.345Z,24.31
2023-02-09T03:23:47.469Z,25.45
2023-02-09T03:24:50.504Z,23.38
2023-02-09T03:25:53.286Z,23.32
2023-02-09T03:26:56.047Z,19.73
2023-02-09T03:27:59.064Z,22.45
2023-02-09T03:29:02.513Z,25.67
2023-02-09T03:30:05.503Z,23.72
2023-02-09T03:31:08.587Z,23.45
2023-02-09T03:32:11.558Z,17.88
2023-02-09T03:33:14.646Z,20.42
2023-02-09T03:34:18.127Z,24.30
2023-02-09T03:35:21.400Z,19.44
2023-02-09T03:36:24.376Z,20.51
2023-02-09T03:37:27.461Z,20.27
2023-02-09T03:38:30.432Z,15.70
2023-02-09T03:39:33.735Z,16.20
2023-02-09T03:40:36.656Z,19.36
2023-02-09T03:41:39.834Z,22.37
2023-02-09T03:42:42.764Z,23.68
2023-02-09T03:43:45.742Z,20.72
2023-02-09T03:44:48.746Z,19.78
2023-02-09T03:45:51.689Z,22.65
2023-02-09T03:46:54.846Z,21.69
2023-02-09T03:47:57.772Z,22.13
2023-02-09T03:49:00.722Z,25.71
2023-02-09T03:50:04.057Z,18.14
2023-02-09T03:51:07.199Z,21.71
2023-02-09T03:52:10.056Z,20.70
2023-02-09T03:53:13.065Z,17.78
2023-02-09T03:54:15.990Z,17.69
2023-02-09T03:55:19.092Z,20.21
2023-02-09T03:56:21.862Z,25.53
2023-02-09T03:57:24.832Z,29.34
2023-02-09T03:58:27.736Z,26.28
2023-02-09T03:59:30.492Z,34.92
2023-02-09T04:00:33.718Z,27.01
2023-02-09T04:01:36.645Z,26.08
2023-02-09T04:02:39.655Z,29.07
2023-02-09T04:03:42.491Z,38.68
2023-02-09T04:04:45.573Z,33.07
2023-02-09T04:05:48.687Z,30.66
2023-02-09T04:06:51.738Z,32.22
2023-02-09T04:07:54.513Z,36.22
2023-02-09T04:08:57.287Z,32.84
2023-02-09T04:10:00.058Z,38.79
2023-02-09T04:11:02.884Z,30.23
2023-02-09T04:12:05.946Z,31.70
2023-02-09T04:13:09.059Z,37.08
2023-02-09T04:14:11.956Z,42.43
2023-02-09T04:15:14.829Z,54.19
2023-02-09T04:16:18.084Z,57.71
2023-02-09T04:17:20.891Z,43.47
2023-02-09T04:18:23.782Z,45.18
2023-02-09T04:19:26.749Z,39.95
2023-02-09T04:20:29.611Z,36.41
2023-02-09T04:21:33.346Z,40.28
2023-02-09T04:22:36.293Z,51.57
2023-02-09T04:23:39.167Z,55.34
2023-02-09T04:24:42.152Z,59.84
2023-02-09T04:25:45.343Z,54.68
2023-02-09T04:26:48.520Z,51.45
2023-02-09T04:27:51.592Z,54.07
2023-02-09T04:28:54.672Z,50.98
2023-02-09T04:29:57.653Z,52.24
2023-02-09T04:31:00.644Z,47.74
2023-02-09T04:32:03.934Z,38.69
2023-02-09T04:33:06.891Z,35.86
2023-02-09T04:34:09.771Z,37.70
2023-02-09T04:35:12.634Z,38.70
2023-02-09T04:36:15.618Z,33.89
2023-02-09T04:37:18.598Z,31.18
2023-02-09T04:38:21.569Z,29.88
2023-02-09T04:39:24.333Z,39.90
2023-02-09T04:40:27.307Z,34.05
2023-02-09T04:41:30.284Z,40.32
2023-02-09T04:42:34.008Z,35.96
2023-02-09T04:43:36.912Z,30.05
2023-02-09T04:44:39.737Z,29.25
2023-02-09T04:45:42.675Z,28.39
2023-02-09T04:46:45.854Z,24.32
2023-02-09T04:47:49.709Z,25.42
2023-02-09T04:48:52.665Z,23.34
2023-02-09T04:49:56.947Z,23.95
2023-02-09T04:50:59.773Z,30.89
2023-02-09T04:52:02.820Z,31.11
2023-02-09T04:53:06.121Z,26.81
2023-02-09T04:54:09.184Z,27.15
2023-02-09T04:55:12.268Z,32.33
2023-02-09T04:56:15.462Z,31.35
2023-02-09T04:57:18.330Z,28.69
2023-02-09T04:58:21.198Z,34.67
2023-02-09T04:59:23.877Z,24.57
2023-02-09T05:00:26.641Z,29.74
2023-02-09T05:01:29.380Z,25.38
2023-02-09T05:02:32.199Z,30.39
2023-02-09T05:03:34.872Z,26.95
2023-02-09T05:04:37.646Z,27.77
2023-02-09T05:05:40.193Z,29.22
2023-02-09T05:06:42.874Z,27.58
2023-02-09T05:07:45.491Z,30.64
2023-02-09T05:08:48.304Z,27.16
2023-02-09T05:09:51.078Z,30.28
2023-02-09T05:10:54.062Z,36.28
2023-02-09T05:11:56.927Z,26.96
2023-02-09T05:13:00.004Z,31.42
2023-02-09T05:14:02.778Z,30.99
2023-02-09T05:15:05.608Z,33.40
2023-02-09T05:16:08.270Z,16.92
2023-02-09T05:17:10.991Z,23.95
2023-02-09T05:18:13.875Z,24.69
2023-02-09T05:19:17.060Z,15.38
2023-02-09T05:20:20.033Z,14.43
2023-02-09T05:21:22.803Z,12.88
2023-02-09T05:22:25.673Z,14.32
2023-02-09T05:23:28.669Z,13.48
2023-02-09T05:24:31.640Z,14.68
2023-02-09T05:25:34.414Z,13.42
2023-02-09T05:26:37.292Z,16.49
2023-02-09T05:27:40.053Z,13.08
2023-02-09T05:28:42.889Z,9.46
2023-02-09T05:29:45.928Z,9.17
2023-02-09T05:30:49.094Z,16.22
2023-02-09T05:31:52.129Z,13.94
2023-02-09T05:32:54.932Z,15.11
2023-02-09T05:33:57.705Z,20.14
2023-02-09T05:35:00.580Z,23.31
2023-02-09T05:36:03.458Z,22.82
2023-02-09T05:37:06.346Z,31.04
2023-02-09T05:38:10.133Z,30.38
2023-02-09T05:39:13.006Z,29.34
2023-02-09T05:40:16.136Z,39.37
2023-02-09T05:41:19.069Z,43.85
2023-02-09T05:42:21.836Z,25.06
2023-02-09T05:43:24.913Z,24.28
2023-02-09T05:44:27.676Z,24.02
2023-02-09T05:45:30.771Z,30.96
2023-02-09T05:46:34.026Z,44.15
2023-02-09T05:47:36.979Z,39.87
2023-02-09T05:48:40.096Z,48.38
2023-02-09T05:49:42.974Z,48.75
2023-02-09T05:50:46.570Z,44.47
2023-02-09T05:51:49.446Z,40.79
2023-02-09T05:52:52.114Z,40.82
2023-02-09T05:53:55.193Z,39.97
2023-02-09T05:54:58.474Z,41.54
2023-02-09T05:56:01.657Z,36.02
2023-02-09T05:57:04.634Z,24.94
2023-02-09T05:58:07.819Z,24.68
2023-02-09T05:59:10.795Z,22.64
2023-02-09T06:00:13.877Z,22.17
2023-02-09T06:01:16.944Z,18.19
2023-02-09T06:02:20.111Z,19.80
2023-02-09T06:03:22.919Z,22.87
2023-02-09T06:04:25.871Z,31.13
2023-02-09T06:05:28.861Z,43.64
2023-02-09T06:06:32.251Z,47.84
2023-02-09T06:07:35.134Z,47.25
2023-02-09T06:08:37.899Z,49.88
2023-02-09T06:09:41.091Z,40.60
2023-02-09T06:10:44.736Z,40.13
2023-02-09T06:11:47.866Z,40.20
2023-02-09T06:12:50.711Z,38.62
2023-02-09T06:13:53.640Z,34.96
2023-02-09T06:14:56.470Z,39.49
2023-02-09T06:15:59.340Z,39.04
2023-02-09T06:17:02.525Z,44.13
2023-02-09T06:18:05.568Z,41.99
2023-02-09T06:19:08.452Z,41.95
2023-02-09T06:20:11.467Z,46.00
2023-02-09T06:21:14.436Z,48.52
2023-02-09T06:22:17.528Z,43.96
2023-02-09T06:23:20.393Z,39.19
2023-02-09T06:24:23.168Z,35.58
2023-02-09T06:25:26.033Z,38.05
2023-02-09T06:26:29.014Z,37.10
2023-02-09T06:27:32.532Z,37.40
2023-02-09T06:28:35.706Z,30.08
2023-02-09T06:29:38.652Z,29.82
2023-02-09T06:30:41.842Z,33.76
2023-02-09T06:31:44.868Z,35.52
2023-02-09T06:32:47.901Z,38.07
2023-02-09T06:33:50.875Z,37.31
2023-02-09T06:34:53.655Z,32.23
2023-02-09T06:35:56.724Z,38.62
2023-02-09T06:36:59.814Z,37.70
2023-02-09T06:38:03.135Z,38.14
2023-02-09T06:39:06.096Z,38.15
2023-02-09T06:40:08.835Z,30.78
2023-02-09T06:41:11.829Z,31.38
2023-02-09T06:42:15.009Z,31.23
2023-02-09T06:43:18.032Z,37.49
2023-02-09T06:44:20.954Z,34.58
2023-02-09T06:45:24.036Z,36.28
2023-02-09T06:46:26.958Z,33.49
2023-02-09T06:47:29.779Z,34.62
2023-02-09T06:48:33.268Z,30.64
2023-02-09T06:49:36.571Z,31.69
2023-02-09T06:50:39.634Z,33.39
2023-02-09T06:51:42.817Z,31.48
2023-02-09T06:52:45.804Z,28.32
2023-02-09T06:53:49.080Z,32.38
2023-02-09T06:54:51.964Z,31.51
2023-02-09T06:55:54.827Z,30.03
2023-02-09T06:56:58.143Z,31.56
2023-02-09T06:58:00.994Z,28.98
2023-02-09T06:59:03.964Z,29.76
2023-02-09T07:00:06.640Z,33.92
2023-02-09T07:01:09.594Z,32.03
2023-02-09T07:02:12.386Z,35.73
2023-02-09T07:03:15.374Z,33.34
2023-02-09T07:04:18.479Z,37.82
2023-02-09T07:05:21.419Z,35.72
2023-02-09T07:06:25.423Z,34.94
2023-02-09T07:07:28.898Z,37.96
2023-02-09T07:08:32.089Z,35.26
2023-02-09T07:09:34.966Z,37.45
2023-02-09T07:10:37.933Z,33.24
2023-02-09T07:11:41.144Z,34.18
2023-02-09T07:12:43.964Z,31.35
2023-02-09T07:13:47.230Z,36.02
2023-02-09T07:14:50.454Z,35.62
2023-02-09T07:15:53.478Z,29.97
2023-02-09T07:16:56.492Z,32.94
2023-02-09T07:17:59.295Z,35.41
2023-02-09T07:19:02.235Z,37.92
2023-02-09T07:20:05.235Z,33.23
2023-02-09T07:21:08.126Z,36.16
2023-02-09T07:22:10.900Z,34.58
2023-02-09T07:23:13.776Z,27.89
2023-02-09T07:24:16.460Z,27.22
2023-02-09T07:25:19.316Z,35.29
2023-02-09T07:26:22.190Z,30.38
2023-02-09T07:27:25.056Z,33.41
2023-02-09T07:28:28.080Z,40.08
2023-02-09T07:29:30.911Z,37.05
2023-02-09T07:30:34.139Z,37.25
2023-02-09T07:31:37.164Z,36.73
2023-02-09T07:32:40.213Z,36.34
2023-02-09T07:33:43.338Z,34.24
2023-02-09T07:34:46.224Z,35.71
2023-02-09T07:35:49.192Z,35.45
2023-02-09T07:36:51.956Z,31.62
2023-02-09T07:37:54.962Z,32.63
2023-02-09T07:38:58.116Z,32.86
2023-02-09T07:40:01.084Z,33.71
2023-02-09T07:41:04.376Z,33.48
2023-02-09T07:42:08.269Z,27.38
2023-02-09T07:43:11.174Z,30.47
2023-02-09T07:44:17.171Z,33.31
2023-02-09T07:45:19.940Z,35.38
2023-02-09T07:46:23.328Z,36.16
2023-02-09T07:47:26.122Z,36.98
2023-02-09T07:48:29.128Z,33.12
2023-02-09T07:49:31.883Z,36.24
2023-02-09T07:50:37.760Z,36.80
2023-02-09T07:51:40.826Z,31.57
2023-02-09T07:52:43.812Z,36.16
2023-02-09T07:53:46.758Z,33.63
2023-02-09T07:54:50.291Z,36.97
2023-02-09T07:55:53.525Z,33.72
2023-02-09T07:56:56.625Z,35.17
2023-02-09T07:57:59.479Z,34.47
2023-02-09T07:59:02.494Z,33.68
2023-02-09T08:00:05.578Z,33.10
2023-02-09T08:01:08.550Z,34.48
2023-02-09T08:02:11.225Z,34.50
2023-02-09T08:03:13.872Z,35.36
2023-02-09T08:04:16.516Z,35.43
2023-02-09T08:05:19.278Z,32.19
2023-02-09T08:06:26.032Z,34.79
2023-02-09T08:07:26.709Z,35.49
2023-02-09T08:08:29.262Z,34.40
2023-02-09T08:09:31.933Z,34.78
2023-02-09T08:10:34.507Z,37.47
2023-02-09T08:11:37.098Z,32.88
2023-02-09T08:12:39.841Z,37.55
2023-02-09T08:13:42.515Z,36.87
2023-02-09T08:14:45.202Z,34.86
2023-02-09T08:15:48.452Z,30.85
2023-02-09T08:16:51.530Z,29.75
2023-02-09T08:17:54.308Z,32.34
2023-02-09T08:18:57.066Z,30.46
2023-02-09T08:19:59.680Z,33.19
2023-02-09T08:21:02.446Z,37.98
2023-02-09T08:22:05.081Z,32.48
2023-02-09T08:23:07.958Z,33.06
2023-02-09T08:24:10.656Z,33.10
2023-02-09T08:25:13.413Z,32.33
2023-02-09T08:26:16.479Z,32.47
2023-02-09T08:27:19.366Z,30.09
2023-02-09T08:28:31.891Z,29.69
2023-02-09T08:29:26.843Z,31.08
2023-02-09T08:30:30.021Z,31.87
2023-02-09T08:31:33.257Z,35.56
2023-02-09T08:32:36.186Z,34.95
2023-02-09T08:33:39.581Z,29.79
2023-02-09T08:34:42.495Z,31.40
2023-02-09T08:35:46.075Z,36.52
2023-02-09T08:36:49.116Z,31.75
2023-02-09T08:37:52.246Z,30.64
2023-02-09T08:38:55.283Z,22.01
2023-02-09T08:39:58.012Z,28.22
2023-02-09T08:41:00.815Z,30.44
2023-02-09T08:42:03.724Z,35.72
2023-02-09T08:43:06.461Z,25.71
2023-02-09T08:44:09.744Z,28.53
2023-02-09T08:45:12.619Z,31.29
2023-02-09T08:46:15.696Z,30.08
2023-02-09T08:47:18.588Z,28.39
2023-02-09T08:48:21.762Z,25.97
2023-02-09T08:49:25.144Z,27.82
2023-02-09T08:50:28.267Z,26.68
2023-02-09T08:51:31.305Z,26.38
2023-02-09T08:52:34.396Z,30.45
2023-02-09T08:53:37.476Z,24.57
2023-02-09T08:54:40.544Z,27.68
2023-02-09T08:55:43.746Z,28.95
2023-02-09T08:56:46.711Z,31.89
2023-02-09T08:57:49.393Z,25.93
2023-02-09T08:58:52.529Z,28.24
2023-02-09T08:59:55.451Z,28.32
2023-02-09T09:00:58.240Z,27.26
2023-02-09T09:02:01.076Z,32.86
2023-02-09T09:03:03.852Z,28.60
2023-02-09T09:04:06.886Z,35.48
2023-02-09T09:05:09.904Z,33.28
2023-02-09T09:06:12.996Z,29.36
2023-02-09T09:07:16.083Z,34.65
2023-02-09T09:08:19.046Z,29.62
2023-02-09T09:09:21.831Z,26.45
2023-02-09T09:10:24.901Z,29.42
2023-02-09T09:11:27.973Z,27.48
2023-02-09T09:12:30.948Z,31.02
2023-02-09T09:13:34.037Z,31.50
2023-02-09T09:14:37.120Z,29.68
2023-02-09T09:15:40.394Z,31.99
2023-02-09T09:16:43.350Z,32.28
2023-02-09T09:17:46.353Z,28.83
2023-02-09T09:18:49.326Z,28.79
2023-02-09T09:19:52.316Z,26.14
2023-02-09T09:20:55.279Z,25.60
2023-02-09T09:21:58.309Z,31.64
2023-02-09T09:23:01.332Z,32.78
2023-02-09T09:24:04.120Z,28.34
2023-02-09T09:25:06.890Z,30.65
2023-02-09T09:26:09.728Z,34.97
2023-02-09T09:27:12.638Z,31.94
2023-02-09T09:28:15.450Z,33.89
2023-02-09T09:29:18.182Z,29.52
2023-02-09T09:30:20.882Z,29.05
2023-02-09T09:31:23.966Z,25.64
2023-02-09T09:32:26.977Z,25.21
2023-02-09T09:33:29.896Z,22.01
2023-02-09T09:34:32.651Z,28.48
2023-02-09T09:35:35.350Z,24.02
2023-02-09T09:36:38.202Z,25.94
2023-02-09T09:37:40.862Z,25.19
2023-02-09T09:38:43.741Z,27.27
2023-02-09T09:39:46.509Z,26.29
2023-02-09T09:40:49.488Z,25.82
2023-02-09T09:41:52.477Z,21.89
2023-02-09T09:42:55.062Z,28.43
2023-02-09T09:43:57.600Z,27.42
2023-02-09T09:45:00.372Z,31.17
2023-02-09T09:46:03.162Z,31.20
2023-02-09T09:47:05.918Z,31.71
2023-02-09T09:48:08.816Z,31.38
2023-02-09T09:49:11.404Z,30.27
2023-02-09T09:50:14.135Z,27.85
2023-02-09T09:51:16.815Z,32.93
2023-02-09T09:52:19.518Z,27.06
2023-02-09T09:53:22.149Z,26.74
2023-02-09T09:54:25.053Z,26.93
2023-02-09T09:55:27.903Z,29.24
2023-02-09T09:56:30.776Z,28.46
2023-02-09T09:57:34.264Z,24.75
2023-02-09T09:58:37.036Z,28.49
2023-02-09T09:59:39.901Z,30.48
2023-02-09T10:00:42.889Z,30.69
2023-02-09T10:01:45.967Z,28.70
2023-02-09T10:02:48.939Z,28.62
2023-02-09T10:03:51.617Z,33.52
2023-02-09T10:04:54.327Z,27.27
2023-02-09T10:05:56.953Z,27.79
2023-02-09T10:06:59.624Z,29.88
2023-02-09T10:08:02.606Z,27.52
2023-02-09T10:09:05.601Z,33.51
2023-02-09T10:10:08.145Z,29.91
2023-02-09T10:11:10.918Z,29.60
2023-02-09T10:12:14.417Z,27.74
2023-02-09T10:13:17.898Z,26.80
2023-02-09T10:14:23.425Z,26.70
2023-02-09T10:15:25.205Z,29.25
2023-02-09T10:16:28.002Z,25.32
2023-02-09T10:17:30.714Z,29.67
2023-02-09T10:18:33.595Z,30.06
2023-02-09T10:19:36.364Z,23.69
2023-02-09T10:20:39.031Z,28.00
2023-02-09T10:21:41.713Z,29.80
2023-02-09T10:22:44.282Z,23.48
2023-02-09T10:23:47.139Z,20.19
2023-02-09T10:24:50.021Z,20.03
2023-02-09T10:25:52.885Z,21.63
2023-02-09T10:26:55.934Z,20.68
2023-02-09T10:27:58.668Z,22.68
2023-02-09T10:29:01.417Z,21.79
2023-02-09T10:30:04.292Z,19.85
2023-02-09T10:31:07.318Z,20.48
2023-02-09T10:32:10.256Z,18.76
2023-02-09T10:33:12.818Z,18.75
2023-02-09T10:34:15.470Z,17.02
2023-02-09T10:35:18.150Z,19.63
2023-02-09T10:36:20.736Z,19.48
2023-02-09T10:37:23.304Z,19.82
2023-02-09T10:38:26.168Z,20.28
2023-02-09T10:39:29.138Z,18.32
2023-02-09T10:40:32.042Z,17.64
2023-02-09T10:41:34.788Z,19.75
2023-02-09T10:42:37.665Z,17.92
2023-02-09T10:43:40.336Z,23.06
2023-02-09T10:44:43.204Z,18.98
2023-02-09T10:45:46.479Z,16.52
2023-02-09T10:46:49.264Z,19.34
2023-02-09T10:47:52.240Z,15.94
2023-02-09T10:48:54.925Z,17.32
2023-02-09T10:49:58.089Z,17.28
2023-02-09T10:51:03.611Z,17.02
2023-02-09T10:52:06.402Z,18.18
2023-02-09T10:53:09.334Z,18.47
2023-02-09T10:54:12.244Z,17.98
2023-02-09T10:55:15.325Z,20.42
2023-02-09T10:56:18.028Z,16.18
2023-02-09T10:57:20.866Z,14.77
2023-02-09T10:58:23.750Z,13.62
2023-02-09T10:59:26.314Z,13.00
2023-02-09T11:00:29.613Z,12.48
2023-02-09T11:01:32.525Z,11.84
2023-02-09T11:02:35.159Z,13.73
2023-02-09T11:03:37.951Z,16.12
2023-02-09T11:04:40.843Z,15.35
2023-02-09T11:05:44.217Z,12.34
2023-02-09T11:06:47.154Z,13.88
2023-02-09T11:07:49.731Z,13.12
2023-02-09T11:08:52.592Z,15.57
2023-02-09T11:09:55.258Z,12.88
2023-02-09T11:10:58.232Z,13.25
2023-02-09T11:12:00.916Z,14.29
2023-02-09T11:13:03.580Z,12.93
2023-02-09T11:14:06.450Z,14.29
2023-02-09T11:15:09.123Z,14.87
2023-02-09T11:16:11.958Z,14.03
2023-02-09T11:17:14.774Z,15.37
2023-02-09T11:18:17.445Z,18.00
2023-02-09T11:19:20.209Z,18.04
2023-02-09T11:20:22.885Z,15.03
2023-02-09T11:21:25.572Z,10.64
2023-02-09T11:22:29.227Z,16.22
2023-02-09T11:23:31.820Z,13.84
2023-02-09T11:24:34.377Z,12.34
2023-02-09T11:25:37.307Z,15.12
2023-02-09T11:26:39.826Z,16.56
2023-02-09T11:27:42.486Z,18.48
2023-02-09T11:28:45.074Z,18.86
2023-02-09T11:29:47.732Z,21.02
2023-02-09T11:30:50.675Z,17.98
2023-02-09T11:31:53.637Z,16.42
2023-02-09T11:32:56.377Z,14.01
2023-02-09T11:33:59.038Z,17.19
2023-02-09T11:35:01.599Z,17.25
2023-02-09T11:36:04.158Z,19.22
2023-02-09T11:37:07.063Z,18.03
2023-02-09T11:38:09.715Z,15.49
2023-02-09T11:39:12.284Z,20.24
2023-02-09T11:40:14.952Z,13.62
2023-02-09T11:41:17.626Z,14.14
2023-02-09T11:42:20.693Z,16.66
2023-02-09T11:43:23.568Z,17.01
2023-02-09T11:44:26.554Z,12.90
2023-02-09T11:45:29.318Z,12.70
2023-02-09T11:46:32.426Z,12.82
2023-02-09T11:47:35.330Z,14.26
2023-02-09T11:48:38.255Z,14.14
2023-02-09T11:49:41.125Z,15.58
2023-02-09T11:50:44.201Z,12.50
2023-02-09T11:51:47.181Z,11.04
2023-02-09T11:52:50.303Z,10.37
2023-02-09T11:53:53.149Z,17.04
2023-02-09T11:54:55.934Z,12.88
2023-02-09T11:55:59.104Z,13.34
2023-02-09T11:57:01.888Z,15.64
2023-02-09T11:58:05.059Z,15.54
2023-02-09T11:59:07.730Z,14.46
2023-02-09T12:00:10.294Z,13.26
2023-02-09T12:01:15.990Z,15.68
2023-02-09T12:02:17.370Z,13.46
2023-02-09T12:03:20.442Z,11.96
2023-02-09T12:04:23.522Z,12.73
2023-02-09T12:05:26.640Z,15.39
2023-02-09T12:06:29.524Z,15.65
2023-02-09T12:07:33.109Z,17.08
2023-02-09T12:08:36.154Z,17.74
2023-02-09T12:09:39.079Z,15.45
2023-02-09T12:10:42.101Z,17.74
2023-02-09T12:11:44.981Z,20.14
2023-02-09T12:12:47.955Z,19.51
2023-02-09T12:13:51.032Z,15.32
2023-02-09T12:14:53.840Z,20.68
2023-02-09T12:15:56.921Z,16.22
2023-02-09T12:16:59.809Z,14.85
2023-02-09T12:18:02.582Z,14.24
2023-02-09T12:19:05.944Z,16.45
2023-02-09T12:20:08.790Z,11.94
2023-02-09T12:21:11.562Z,16.68
2023-02-09T12:22:14.348Z,14.54
2023-02-09T12:23:17.203Z,17.53
2023-02-09T12:24:20.111Z,13.78
2023-02-09T12:25:22.960Z,15.56
2023-02-09T12:26:25.637Z,14.34
2023-02-09T12:27:28.188Z,11.25
2023-02-09T12:28:31.138Z,11.18
2023-02-09T12:29:33.845Z,14.25
2023-02-09T12:30:36.377Z,15.24
2023-02-09T12:31:39.079Z,13.48
2023-02-09T12:32:41.856Z,13.82
2023-02-09T12:33:44.520Z,17.58
2023-02-09T12:34:47.320Z,18.01
2023-02-09T12:35:50.157Z,13.07
2023-02-09T12:36:52.937Z,15.51
2023-02-09T12:37:55.605Z,15.15
2023-02-09T12:39:04.638Z,15.68
2023-02-09T12:40:02.901Z,14.62
2023-02-09T12:41:05.776Z,17.08
2023-02-09T12:42:08.336Z,16.54
2023-02-09T12:43:10.904Z,14.26
2023-02-09T12:44:13.569Z,14.98
2023-02-09T12:45:16.658Z,15.88
2023-02-09T12:46:19.443Z,16.78
2023-02-09T12:47:22.189Z,14.12
2023-02-09T12:48:25.105Z,16.97
2023-02-09T12:49:27.844Z,15.02
2023-02-09T12:50:31.427Z,13.28
2023-02-09T12:51:34.302Z,16.56
2023-02-09T12:52:37.291Z,16.37
2023-02-09T12:53:40.188Z,16.63
2023-02-09T12:54:42.831Z,17.89
2023-02-09T12:55:46.629Z,16.32
2023-02-09T12:56:49.518Z,16.94
2023-02-09T12:57:52.064Z,18.85
2023-02-09T12:58:54.734Z,14.42
2023-02-09T12:59:57.705Z,14.27
2023-02-09T13:01:00.644Z,11.95
2023-02-09T13:02:03.591Z,14.49
2023-02-09T13:03:08.020Z,14.40
2023-02-09T13:04:11.253Z,14.57
2023-02-09T13:05:14.050Z,13.76
2023-02-09T13:06:16.961Z,11.86
2023-02-09T13:07:20.190Z,15.27
2023-02-09T13:08:23.167Z,14.90
2023-02-09T13:09:25.945Z,16.13
2023-02-09T13:10:28.722Z,14.84
2023-02-09T13:11:34.104Z,17.04
2023-02-09T13:12:37.034Z,12.33
2023-02-09T13:13:39.855Z,15.36
2023-02-09T13:14:42.568Z,15.34
2023-02-09T13:15:46.258Z,16.39
2023-02-09T13:18:05.533Z,14.55
2023-02-09T13:19:08.516Z,16.05
2023-02-09T13:20:11.560Z,16.02
2023-02-09T13:21:14.396Z,14.15
2023-02-09T13:23:33.831Z,12.30
2023-02-09T13:24:36.735Z,11.65
2023-02-09T13:25:39.580Z,13.69
2023-02-09T13:26:42.457Z,13.89
2023-02-09T13:27:45.552Z,13.52
2023-02-09T13:28:48.511Z,13.00
2023-02-09T13:32:23.476Z,13.71
2023-02-09T13:34:42.735Z,12.88
2023-02-09T13:37:02.015Z,10.80
2023-02-09T13:38:04.783Z,13.02